Airports and Charts


LSGC - Les Eplatures
Flughafeninformationen
Runway
Identifier Approach Dimension Surface
06
(054°)
VISUAL 1130 x 27 m
(3707 x 89 ft)
Asphalt
24
(234°)
ILS/DME

METEO Reports
METAR
LSGC
121120Z VRB06KT 9999 BKN035 21/13 Q1025
TAF
TAF LSGC
120825Z 1209/1218 24003KT CAVOK
BECMG 1210/1213 9999 FEW015

Charts
Charts - LSGC
Les Eplatures
  FilenameReleased
- no files found -

Sceneries
Sceneries - LSGC
Les Eplatures
  FilenameReleased
- no files found -

Stations
KennzeichenNameFrequenz
LSAS_CTR Swiss Radar 128.050 MHz
LSAS_A_CTR Swiss Radar 135.670 MHz
LSAS_B_CTR Swiss Radar 133.900 MHz
LSAS_C_CTR Swiss Radar 135.150 MHz
LSAS_D_CTR Swiss Radar 128.900 MHz
LSAS_F_CTR Swiss Radar 124.020 MHz
LSAS_G_CTR Swiss Radar 134.320 MHz
LSAS_H_CTR Swiss Radar 134.020 MHz
LSAS_J_CTR Swiss Radar 133.620 MHz
LSAS_U_CTR Swiss Radar 133.400 MHz
LSAS_V_CTR Swiss Radar 133.050 MHz
LSAS_I_CTR Swiss Information 124.700 MHz
LSGC_TWR Les Eplatures Tower 118.120 MHz


 

online atc

  • no controllers are online

bookings overview

events RSS

news RSS

  • Cross The Land Eastbound Voting

    18.04.2020 07:59:09 z

    Das Voting zur Selektion der Flughäfen für das Event Cross The Land vom 13. ...

  • VA Meeting 2020

    17.03.2020 15:08:00 z

    Die vACC Schweiz präsentiert euch stolz die nächste Ausgabe unseres ...

  • Audio For VATSIM

    13.10.2019 19:04:16 z

    Die VATSIM-Infrastruktur wird in den nächsten 24 Stunden ein umfassendes Update ...